sensor_id;sensor_type;location;lat;lon;timestamp;pressure;altitude;pressure_sealevel;temperature;humidity
58373;BME280;44177;43.356;27.672;2024-01-10T00:01:50;99421.78;;;-10.23;80.66
58373;BME280;44177;43.356;27.672;2024-01-10T00:04:16;99428.50;;;-10.21;80.75
58373;BME280;44177;43.356;27.672;2024-01-10T00:06:42;99441.72;;;-10.21;81.01
58373;BME280;44177;43.356;27.672;2024-01-10T00:09:08;99408.63;;;-10.38;81.40
58373;BME280;44177;43.356;27.672;2024-01-10T00:11:34;99442.63;;;-10.28;81.35
58373;BME280;44177;43.356;27.672;2024-01-10T00:13:59;99452.66;;;-10.24;82.03
58373;BME280;44177;43.356;27.672;2024-01-10T00:16:27;99438.69;;;-10.33;82.09
58373;BME280;44177;43.356;27.672;2024-01-10T00:18:53;99436.88;;;-10.32;81.62
58373;BME280;44177;43.356;27.672;2024-01-10T00:21:18;99462.13;;;-10.14;81.35
58373;BME280;44177;43.356;27.672;2024-01-10T00:23:44;99466.38;;;-10.13;80.81
58373;BME280;44177;43.356;27.672;2024-01-10T00:26:09;99470.84;;;-10.14;81.46
58373;BME280;44177;43.356;27.672;2024-01-10T00:28:35;99454.53;;;-10.33;81.48
58373;BME280;44177;43.356;27.672;2024-01-10T00:31:00;99468.41;;;-10.16;81.50
58373;BME280;44177;43.356;27.672;2024-01-10T00:33:26;99472.22;;;-10.18;81.43
58373;BME280;44177;43.356;27.672;2024-01-10T00:35:51;99477.38;;;-10.25;81.55
58373;BME280;44177;43.356;27.672;2024-01-10T00:38:17;99475.66;;;-10.18;81.63
58373;BME280;44177;43.356;27.672;2024-01-10T00:40:42;99477.50;;;-10.18;81.41
58373;BME280;44177;43.356;27.672;2024-01-10T00:43:08;99393.91;;;-10.71;81.19
58373;BME280;44177;43.356;27.672;2024-01-10T00:45:33;99486.97;;;-10.09;81.33
58373;BME280;44177;43.356;27.672;2024-01-10T00:47:59;99485.69;;;-10.13;81.05
58373;BME280;44177;43.356;27.672;2024-01-10T00:50:24;99389.81;;;-10.73;81.11
58373;BME280;44177;43.356;27.672;2024-01-10T00:52:49;99478.97;;;-10.16;81.09
58373;BME280;44177;43.356;27.672;2024-01-10T00:55:15;99466.47;;;-10.22;81.44
58373;BME280;44177;43.356;27.672;2024-01-10T00:57:40;99447.56;;;-10.40;81.43
58373;BME280;44177;43.356;27.672;2024-01-10T01:00:07;99467.75;;;-10.18;81.58
58373;BME280;44177;43.356;27.672;2024-01-10T01:02:33;99476.25;;;-10.07;81.97
58373;BME280;44177;43.356;27.672;2024-01-10T01:04:58;99460.03;;;-10.19;81.92
58373;BME280;44177;43.356;27.672;2024-01-10T01:07:24;99467.03;;;-10.11;82.28
58373;BME280;44177;43.356;27.672;2024-01-10T01:09:49;99444.63;;;-10.31;82.71
58373;BME280;44177;43.356;27.672;2024-01-10T01:12:15;99461.47;;;-10.17;82.80
58373;BME280;44177;43.356;27.672;2024-01-10T01:14:41;99440.88;;;-10.36;83.47
58373;BME280;44177;43.356;27.672;2024-01-10T01:17:06;99467.41;;;-10.14;83.93
58373;BME280;44177;43.356;27.672;2024-01-10T01:19:32;99472.91;;;-10.24;84.24
58373;BME280;44177;43.356;27.672;2024-01-10T01:21:57;99469.28;;;-10.23;84.41
58373;BME280;44177;43.356;27.672;2024-01-10T01:24:22;99475.19;;;-10.36;84.32
58373;BME280;44177;43.356;27.672;2024-01-10T01:26:48;99477.22;;;-10.38;84.69
58373;BME280;44177;43.356;27.672;2024-01-10T01:29:13;99468.66;;;-10.40;84.34
58373;BME280;44177;43.356;27.672;2024-01-10T01:31:39;99472.47;;;-10.43;84.28
58373;BME280;44177;43.356;27.672;2024-01-10T01:34:04;99469.66;;;-10.41;83.95
58373;BME280;44177;43.356;27.672;2024-01-10T01:36:30;99450.97;;;-10.55;83.60
58373;BME280;44177;43.356;27.672;2024-01-10T01:38:55;99458.13;;;-10.64;83.87
58373;BME280;44177;43.356;27.672;2024-01-10T01:41:21;99481.97;;;-10.57;83.88
58373;BME280;44177;43.356;27.672;2024-01-10T01:43:46;99465.63;;;-10.75;84.31
58373;BME280;44177;43.356;27.672;2024-01-10T01:46:12;99482.97;;;-10.58;84.50
58373;BME280;44177;43.356;27.672;2024-01-10T01:48:38;99476.59;;;-10.64;84.73
58373;BME280;44177;43.356;27.672;2024-01-10T01:51:06;99402.59;;;-11.08;84.52
58373;BME280;44177;43.356;27.672;2024-01-10T01:53:33;99473.16;;;-10.64;84.56
58373;BME280;44177;43.356;27.672;2024-01-10T01:56:02;99480.06;;;-10.63;84.26
58373;BME280;44177;43.356;27.672;2024-01-10T01:58:29;99478.75;;;-10.67;84.71
58373;BME280;44177;43.356;27.672;2024-01-10T02:00:55;99472.38;;;-10.73;84.92
58373;BME280;44177;43.356;27.672;2024-01-10T02:03:20;99454.53;;;-10.86;84.98
58373;BME280;44177;43.356;27.672;2024-01-10T02:05:46;99469.97;;;-10.83;85.45
58373;BME280;44177;43.356;27.672;2024-01-10T02:08:12;99464.00;;;-10.76;85.56
58373;BME280;44177;43.356;27.672;2024-01-10T02:10:37;99465.63;;;-10.75;85.40
58373;BME280;44177;43.356;27.672;2024-01-10T02:13:03;99450.66;;;-10.75;85.43
58373;BME280;44177;43.356;27.672;2024-01-10T02:15:29;99452.16;;;-10.81;85.51
58373;BME280;44177;43.356;27.672;2024-01-10T02:17:54;99454.16;;;-10.83;85.37
58373;BME280;44177;43.356;27.672;2024-01-10T02:20:20;99461.41;;;-10.85;85.52
58373;BME280;44177;43.356;27.672;2024-01-10T02:22:48;99448.53;;;-10.80;85.58
58373;BME280;44177;43.356;27.672;2024-01-10T02:25:15;99414.78;;;-11.07;85.53
58373;BME280;44177;43.356;27.672;2024-01-10T02:27:41;99463.25;;;-10.85;85.64
58373;BME280;44177;43.356;27.672;2024-01-10T02:30:08;99466.59;;;-10.91;85.68
58373;BME280;44177;43.356;27.672;2024-01-10T02:32:34;99455.97;;;-10.83;85.70
58373;BME280;44177;43.356;27.672;2024-01-10T02:35:00;99447.44;;;-10.85;85.94
58373;BME280;44177;43.356;27.672;2024-01-10T02:37:26;99462.59;;;-10.87;85.41
58373;BME280;44177;43.356;27.672;2024-01-10T02:39:51;99398.81;;;-11.29;85.63
58373;BME280;44177;43.356;27.672;2024-01-10T02:42:17;99371.91;;;-11.48;85.90
58373;BME280;44177;43.356;27.672;2024-01-10T02:44:43;99460.66;;;-10.93;85.84
58373;BME280;44177;43.356;27.672;2024-01-10T02:47:09;99463.47;;;-10.95;85.90
58373;BME280;44177;43.356;27.672;2024-01-10T02:49:35;99464.47;;;-10.96;85.95
58373;BME280;44177;43.356;27.672;2024-01-10T02:52:00;99427.44;;;-11.26;85.71
58373;BME280;44177;43.356;27.672;2024-01-10T02:54:26;99460.97;;;-11.12;86.21
58373;BME280;44177;43.356;27.672;2024-01-10T02:56:51;99470.44;;;-11.02;85.97
58373;BME280;44177;43.356;27.672;2024-01-10T02:59:17;99469.97;;;-11.06;86.45
58373;BME280;44177;43.356;27.672;2024-01-10T03:01:43;99474.09;;;-11.03;86.61
58373;BME280;44177;43.356;27.672;2024-01-10T03:04:09;99471.41;;;-10.95;86.35
58373;BME280;44177;43.356;27.672;2024-01-10T03:06:34;99468.44;;;-11.00;86.42
58373;BME280;44177;43.356;27.672;2024-01-10T03:09:00;99462.19;;;-10.99;86.85
58373;BME280;44177;43.356;27.672;2024-01-10T03:11:25;99465.19;;;-11.02;86.83
58373;BME280;44177;43.356;27.672;2024-01-10T03:14:00;99462.19;;;-10.99;86.92
58373;BME280;44177;43.356;27.672;2024-01-10T03:16:26;99399.22;;;-11.40;87.13
58373;BME280;44177;43.356;27.672;2024-01-10T03:18:51;99455.50;;;-11.10;87.34
58373;BME280;44177;43.356;27.672;2024-01-10T03:21:17;99451.94;;;-11.17;87.29
58373;BME280;44177;43.356;27.672;2024-01-10T03:23:50;99453.81;;;-11.03;87.20
58373;BME280;44177;43.356;27.672;2024-01-10T03:26:15;99456.44;;;-11.03;87.47
58373;BME280;44177;43.356;27.672;2024-01-10T03:28:41;99466.00;;;-11.02;88.13
58373;BME280;44177;43.356;27.672;2024-01-10T03:31:06;99470.78;;;-11.05;88.12
58373;BME280;44177;43.356;27.672;2024-01-10T03:33:32;99473.09;;;-11.02;88.03
58373;BME280;44177;43.356;27.672;2024-01-10T03:35:58;99435.34;;;-11.26;88.42
58373;BME280;44177;43.356;27.672;2024-01-10T03:38:23;99471.41;;;-10.95;88.32
58373;BME280;44177;43.356;27.672;2024-01-10T03:40:48;99455.25;;;-11.00;88.33
58373;BME280;44177;43.356;27.672;2024-01-10T03:43:14;99485.78;;;-10.83;88.00
58373;BME280;44177;43.356;27.672;2024-01-10T03:45:39;99471.63;;;-10.82;88.04
58373;BME280;44177;43.356;27.672;2024-01-10T03:48:06;99480.25;;;-10.88;88.04
58373;BME280;44177;43.356;27.672;2024-01-10T03:50:31;99474.31;;;-10.90;88.51
58373;BME280;44177;43.356;27.672;2024-01-10T03:52:57;99483.59;;;-10.94;88.55
58373;BME280;44177;43.356;27.672;2024-01-10T03:55:22;99478.31;;;-10.94;88.59
58373;BME280;44177;43.356;27.672;2024-01-10T03:57:48;99455.56;;;-10.95;88.35
58373;BME280;44177;43.356;27.672;2024-01-10T04:00:13;99426.09;;;-11.22;88.48
58373;BME280;44177;43.356;27.672;2024-01-10T04:02:39;99483.47;;;-10.77;88.70
58373;BME280;44177;43.356;27.672;2024-01-10T04:05:08;99484.75;;;-10.73;88.37
58373;BME280;44177;43.356;27.672;2024-01-10T04:07:36;99418.13;;;-11.14;88.42
58373;BME280;44177;43.356;27.672;2024-01-10T04:10:02;99460.13;;;-10.89;88.16
58373;BME280;44177;43.356;27.672;2024-01-10T04:12:28;99438.13;;;-10.96;88.31
58373;BME280;44177;43.356;27.672;2024-01-10T04:14:54;99483.75;;;-10.72;87.93
58373;BME280;44177;43.356;27.672;2024-01-10T04:17:19;99487.09;;;-10.78;88.13
58373;BME280;44177;43.356;27.672;2024-01-10T04:19:45;99484.56;;;-10.72;88.29
58373;BME280;44177;43.356;27.672;2024-01-10T04:22:10;99483.75;;;-10.72;87.75
58373;BME280;44177;43.356;27.672;2024-01-10T04:24:35;99473.84;;;-10.70;87.96
58373;BME280;44177;43.356;27.672;2024-01-10T04:27:01;99451.53;;;-10.83;88.19
58373;BME280;44177;43.356;27.672;2024-01-10T04:29:26;99468.97;;;-10.82;88.18
58373;BME280;44177;43.356;27.672;2024-01-10T04:31:52;99482.91;;;-10.73;88.24
58373;BME280;44177;43.356;27.672;2024-01-10T04:34:17;99479.47;;;-10.73;88.22
58373;BME280;44177;43.356;27.672;2024-01-10T04:36:43;99481.81;;;-10.78;88.14
58373;BME280;44177;43.356;27.672;2024-01-10T04:39:09;99485.56;;;-10.73;87.71
58373;BME280;44177;43.356;27.672;2024-01-10T04:41:35;99495.22;;;-10.65;86.81
58373;BME280;44177;43.356;27.672;2024-01-10T04:44:00;99480.22;;;-10.65;86.13
58373;BME280;44177;43.356;27.672;2024-01-10T04:46:26;99468.94;;;-10.73;85.07
58373;BME280;44177;43.356;27.672;2024-01-10T04:48:51;99501.63;;;-10.59;83.93
58373;BME280;44177;43.356;27.672;2024-01-10T04:51:17;99492.59;;;-10.65;82.98
58373;BME280;44177;43.356;27.672;2024-01-10T04:53:43;99477.19;;;-10.76;81.90
58373;BME280;44177;43.356;27.672;2024-01-10T04:56:08;99490.63;;;-10.63;81.32
58373;BME280;44177;43.356;27.672;2024-01-10T04:58:34;99456.91;;;-10.99;80.33
58373;BME280;44177;43.356;27.672;2024-01-10T05:01:00;99491.66;;;-10.72;79.71
58373;BME280;44177;43.356;27.672;2024-01-10T05:03:25;99491.84;;;-10.74;78.93
58373;BME280;44177;43.356;27.672;2024-01-10T05:05:51;99472.22;;;-10.71;77.83
58373;BME280;44177;43.356;27.672;2024-01-10T05:08:16;99501.16;;;-10.63;77.10
58373;BME280;44177;43.356;27.672;2024-01-10T05:10:45;99505.59;;;-10.64;76.53
58373;BME280;44177;43.356;27.672;2024-01-10T05:13:12;99497.19;;;-10.82;76.38
58373;BME280;44177;43.356;27.672;2024-01-10T05:15:37;99506.84;;;-10.74;76.50
58373;BME280;44177;43.356;27.672;2024-01-10T05:18:03;99514.41;;;-10.71;75.69
58373;BME280;44177;43.356;27.672;2024-01-10T05:20:29;99511.31;;;-10.75;75.90
58373;BME280;44177;43.356;27.672;2024-01-10T05:22:54;99505.25;;;-10.84;76.29
58373;BME280;44177;43.356;27.672;2024-01-10T05:25:24;99522.38;;;-10.80;76.38
58373;BME280;44177;43.356;27.672;2024-01-10T05:27:49;99521.47;;;-10.72;76.55
58373;BME280;44177;43.356;27.672;2024-01-10T05:30:15;99525.59;;;-10.69;76.31
58373;BME280;44177;43.356;27.672;2024-01-10T05:32:41;99523.38;;;-10.81;76.02
58373;BME280;44177;43.356;27.672;2024-01-10T05:35:07;99517.19;;;-10.73;75.92
58373;BME280;44177;43.356;27.672;2024-01-10T05:37:33;99525.00;;;-10.80;76.51
58373;BME280;44177;43.356;27.672;2024-01-10T05:39:58;99526.19;;;-10.82;76.32
58373;BME280;44177;43.356;27.672;2024-01-10T05:42:24;99530.88;;;-10.69;76.31
58373;BME280;44177;43.356;27.672;2024-01-10T05:44:50;99465.56;;;-11.14;76.10
58373;BME280;44177;43.356;27.672;2024-01-10T05:47:15;99541.78;;;-10.72;76.57
58373;BME280;44177;43.356;27.672;2024-01-10T05:49:41;99526.53;;;-10.85;76.79
58373;BME280;44177;43.356;27.672;2024-01-10T05:52:07;99541.13;;;-10.74;77.55
58373;BME280;44177;43.356;27.672;2024-01-10T05:54:33;99544.22;;;-10.71;77.18
58373;BME280;44177;43.356;27.672;2024-01-10T05:56:58;99536.69;;;-10.74;76.81
58373;BME280;44177;43.356;27.672;2024-01-10T05:59:26;99547.47;;;-10.60;76.20
58373;BME280;44177;43.356;27.672;2024-01-10T06:01:52;99477.13;;;-10.91;76.41
58373;BME280;44177;43.356;27.672;2024-01-10T06:04:17;99528.81;;;-10.59;75.93
58373;BME280;44177;43.356;27.672;2024-01-10T06:06:42;99539.44;;;-10.29;76.00
58373;BME280;44177;43.356;27.672;2024-01-10T06:09:10;99540.88;;;-10.03;75.35
58373;BME280;44177;43.356;27.672;2024-01-10T06:11:45;99544.63;;;-9.97;74.97
58373;BME280;44177;43.356;27.672;2024-01-10T06:14:10;99538.59;;;-9.91;74.57
58373;BME280;44177;43.356;27.672;2024-01-10T06:16:36;99541.53;;;-9.71;74.42
58373;BME280;44177;43.356;27.672;2024-01-10T06:19:01;99504.75;;;-10.03;73.76
58373;BME280;44177;43.356;27.672;2024-01-10T06:21:27;99544.56;;;-9.59;73.55
58373;BME280;44177;43.356;27.672;2024-01-10T06:23:52;99543.22;;;-9.55;73.17
58373;BME280;44177;43.356;27.672;2024-01-10T06:26:18;99544.09;;;-9.33;72.86
58373;BME280;44177;43.356;27.672;2024-01-10T06:28:43;99547.38;;;-9.16;71.90
58373;BME280;44177;43.356;27.672;2024-01-10T06:31:09;99537.06;;;-8.74;70.28
58373;BME280;44177;43.356;27.672;2024-01-10T06:33:34;99517.66;;;-7.39;66.31
58373;BME280;44177;43.356;27.672;2024-01-10T06:36:00;99541.03;;;-5.92;59.73
58373;BME280;44177;43.356;27.672;2024-01-10T06:38:25;99549.59;;;-5.50;57.44
58373;BME280;44177;43.356;27.672;2024-01-10T06:40:51;99539.59;;;-5.75;56.90
58373;BME280;44177;43.356;27.672;2024-01-10T06:43:16;99542.06;;;-5.87;56.58
58373;BME280;44177;43.356;27.672;2024-01-10T06:45:42;99552.03;;;-4.19;54.51
58373;BME280;44177;43.356;27.672;2024-01-10T06:48:07;99540.78;;;-2.77;49.48
58373;BME280;44177;43.356;27.672;2024-01-10T06:50:33;99541.13;;;-2.43;47.51
58373;BME280;44177;43.356;27.672;2024-01-10T06:52:59;99542.53;;;-1.86;46.62
58373;BME280;44177;43.356;27.672;2024-01-10T06:55:25;99531.25;;;-1.65;44.77
58373;BME280;44177;43.356;27.672;2024-01-10T06:57:51;99533.25;;;-3.36;47.49
58373;BME280;44177;43.356;27.672;2024-01-10T07:00:20;99552.28;;;-2.77;47.95
58373;BME280;44177;43.356;27.672;2024-01-10T07:02:46;99565.19;;;-1.89;46.18
58373;BME280;44177;43.356;27.672;2024-01-10T07:05:11;99567.88;;;-1.77;45.66
58373;BME280;44177;43.356;27.672;2024-01-10T07:07:37;99560.00;;;-1.60;45.58
58373;BME280;44177;43.356;27.672;2024-01-10T07:10:03;99570.44;;;-1.70;46.10
58373;BME280;44177;43.356;27.672;2024-01-10T07:12:33;99561.41;;;0.28;44.29
58373;BME280;44177;43.356;27.672;2024-01-10T07:14:58;99554.06;;;1.46;40.93
58373;BME280;44177;43.356;27.672;2024-01-10T07:17:28;99548.44;;;2.45;38.95
58373;BME280;44177;43.356;27.672;2024-01-10T07:19:53;99553.50;;;2.79;38.66
58373;BME280;44177;43.356;27.672;2024-01-10T07:22:22;99545.75;;;1.75;39.52
58373;BME280;44177;43.356;27.672;2024-01-10T07:24:48;99560.66;;;1.33;41.52
58373;BME280;44177;43.356;27.672;2024-01-10T07:27:13;99564.53;;;1.20;41.18
58373;BME280;44177;43.356;27.672;2024-01-10T07:29:40;99565.66;;;1.24;41.77
58373;BME280;44177;43.356;27.672;2024-01-10T07:32:06;99565.91;;;1.45;42.06
58373;BME280;44177;43.356;27.672;2024-01-10T07:34:37;99559.16;;;2.35;40.92
58373;BME280;44177;43.356;27.672;2024-01-10T07:37:03;99568.75;;;2.20;40.29
58373;BME280;44177;43.356;27.672;2024-01-10T07:39:29;99568.22;;;2.24;41.45
58373;BME280;44177;43.356;27.672;2024-01-10T07:41:55;99558.91;;;1.71;42.18
58373;BME280;44177;43.356;27.672;2024-01-10T07:44:20;99552.97;;;0.98;43.11
58373;BME280;44177;43.356;27.672;2024-01-10T07:46:46;99569.66;;;1.44;43.00
58373;BME280;44177;43.356;27.672;2024-01-10T07:49:11;99592.47;;;0.24;44.50
58373;BME280;44177;43.356;27.672;2024-01-10T07:51:37;99598.59;;;-0.27;46.47
58373;BME280;44177;43.356;27.672;2024-01-10T07:54:02;99584.34;;;0.53;44.89
58373;BME280;44177;43.356;27.672;2024-01-10T07:56:28;99590.50;;;0.70;45.59
58373;BME280;44177;43.356;27.672;2024-01-10T07:58:55;99584.19;;;0.25;46.09
58373;BME280;44177;43.356;27.672;2024-01-10T08:01:20;99579.31;;;0.39;45.85
58373;BME280;44177;43.356;27.672;2024-01-10T08:03:46;99598.25;;;1.06;45.33
58373;BME280;44177;43.356;27.672;2024-01-10T08:06:12;99594.16;;;1.25;44.95
58373;BME280;44177;43.356;27.672;2024-01-10T08:08:39;99586.78;;;1.16;45.22
58373;BME280;44177;43.356;27.672;2024-01-10T08:11:04;99597.34;;;1.22;45.66
58373;BME280;44177;43.356;27.672;2024-01-10T08:13:31;99582.53;;;0.98;44.53
58373;BME280;44177;43.356;27.672;2024-01-10T08:15:56;99602.84;;;1.33;44.25
58373;BME280;44177;43.356;27.672;2024-01-10T08:18:23;99587.72;;;1.26;44.29
58373;BME280;44177;43.356;27.672;2024-01-10T08:20:48;99587.94;;;1.69;43.70
58373;BME280;44177;43.356;27.672;2024-01-10T08:23:14;99604.94;;;0.86;44.89
58373;BME280;44177;43.356;27.672;2024-01-10T08:25:39;99579.41;;;2.10;43.72
58373;BME280;44177;43.356;27.672;2024-01-10T08:28:06;99566.09;;;1.66;43.17
58373;BME280;44177;43.356;27.672;2024-01-10T08:30:32;99593.41;;;2.45;42.46
58373;BME280;44177;43.356;27.672;2024-01-10T08:32:57;99585.00;;;3.27;40.38
58373;BME280;44177;43.356;27.672;2024-01-10T08:35:24;99552.97;;;5.41;37.08
58373;BME280;44177;43.356;27.672;2024-01-10T08:37:50;99560.16;;;6.11;35.25
58373;BME280;44177;43.356;27.672;2024-01-10T08:40:15;99567.59;;;7.07;33.78
58373;BME280;44177;43.356;27.672;2024-01-10T08:42:42;99561.78;;;8.15;32.24
58373;BME280;44177;43.356;27.672;2024-01-10T08:45:08;99564.59;;;9.68;30.74
58373;BME280;44177;43.356;27.672;2024-01-10T08:47:35;99565.13;;;10.16;30.16
58373;BME280;44177;43.356;27.672;2024-01-10T08:50:04;99547.75;;;9.66;30.06
58373;BME280;44177;43.356;27.672;2024-01-10T08:52:36;99563.22;;;10.70;30.17
58373;BME280;44177;43.356;27.672;2024-01-10T08:55:04;99551.19;;;10.71;28.73
58373;BME280;44177;43.356;27.672;2024-01-10T08:57:30;99549.88;;;11.00;28.48
58373;BME280;44177;43.356;27.672;2024-01-10T08:59:55;99550.84;;;12.80;27.32
58373;BME280;44177;43.356;27.672;2024-01-10T09:02:21;99548.72;;;12.38;26.90
58373;BME280;44177;43.356;27.672;2024-01-10T09:04:48;99538.75;;;12.34;26.57
58373;BME280;44177;43.356;27.672;2024-01-10T09:07:14;99541.59;;;12.93;26.15
58373;BME280;44177;43.356;27.672;2024-01-10T09:09:39;99533.66;;;13.01;25.97
58373;BME280;44177;43.356;27.672;2024-01-10T09:12:05;99525.09;;;13.32;25.25
58373;BME280;44177;43.356;27.672;2024-01-10T09:14:31;99546.13;;;12.89;25.63
58373;BME280;44177;43.356;27.672;2024-01-10T09:16:56;99537.63;;;11.56;27.23
58373;BME280;44177;43.356;27.672;2024-01-10T09:19:22;99541.88;;;11.04;28.31
58373;BME280;44177;43.356;27.672;2024-01-10T09:21:47;99545.03;;;10.88;28.46
58373;BME280;44177;43.356;27.672;2024-01-10T09:24:13;99495.41;;;10.46;28.16
58373;BME280;44177;43.356;27.672;2024-01-10T09:26:40;99538.97;;;11.09;29.02
58373;BME280;44177;43.356;27.672;2024-01-10T09:29:06;99540.91;;;9.91;29.09
58373;BME280;44177;43.356;27.672;2024-01-10T09:31:31;99544.78;;;9.76;30.03
58373;BME280;44177;43.356;27.672;2024-01-10T09:33:57;99552.00;;;8.94;30.51
58373;BME280;44177;43.356;27.672;2024-01-10T09:36:22;99547.34;;;9.08;31.03
58373;BME280;44177;43.356;27.672;2024-01-10T09:38:48;99528.34;;;10.04;30.40
58373;BME280;44177;43.356;27.672;2024-01-10T09:41:14;99527.13;;;10.73;29.43
58373;BME280;44177;43.356;27.672;2024-01-10T09:43:41;99525.31;;;12.50;27.26
58373;BME280;44177;43.356;27.672;2024-01-10T09:46:07;99519.06;;;12.49;26.51
58373;BME280;44177;43.356;27.672;2024-01-10T09:48:32;99519.94;;;11.88;27.61
58373;BME280;44177;43.356;27.672;2024-01-10T09:50:58;99501.22;;;12.43;27.26
58373;BME280;44177;43.356;27.672;2024-01-10T09:53:26;99501.28;;;11.81;28.20
58373;BME280;44177;43.356;27.672;2024-01-10T09:55:57;99506.97;;;12.50;27.99
58373;BME280;44177;43.356;27.672;2024-01-10T09:58:25;99507.38;;;13.00;27.14
58373;BME280;44177;43.356;27.672;2024-01-10T10:00:51;99487.03;;;13.39;26.56
58373;BME280;44177;43.356;27.672;2024-01-10T10:03:18;99499.78;;;15.44;24.94
58373;BME280;44177;43.356;27.672;2024-01-10T10:05:44;99490.41;;;14.00;25.05
58373;BME280;44177;43.356;27.672;2024-01-10T10:08:11;99477.47;;;14.59;24.69
58373;BME280;44177;43.356;27.672;2024-01-10T10:10:38;99471.84;;;13.84;24.97
58373;BME280;44177;43.356;27.672;2024-01-10T10:13:09;99484.44;;;13.34;26.08
58373;BME280;44177;43.356;27.672;2024-01-10T10:15:36;99470.91;;;13.59;25.64
58373;BME280;44177;43.356;27.672;2024-01-10T10:18:02;99464.28;;;12.58;26.56
58373;BME280;44177;43.356;27.672;2024-01-10T10:20:30;99456.16;;;13.51;26.16
58373;BME280;44177;43.356;27.672;2024-01-10T10:23:08;99448.94;;;13.38;26.40
58373;BME280;44177;43.356;27.672;2024-01-10T10:25:37;99431.38;;;13.94;26.16
58373;BME280;44177;43.356;27.672;2024-01-10T10:28:07;99442.06;;;12.89;27.59
58373;BME280;44177;43.356;27.672;2024-01-10T10:30:33;99444.50;;;13.33;27.07
58373;BME280;44177;43.356;27.672;2024-01-10T10:32:59;99418.66;;;14.23;25.52
58373;BME280;44177;43.356;27.672;2024-01-10T10:35:25;99434.22;;;14.43;25.49
58373;BME280;44177;43.356;27.672;2024-01-10T10:37:51;99432.22;;;13.61;26.74
58373;BME280;44177;43.356;27.672;2024-01-10T10:40:18;99422.50;;;11.75;27.17
58373;BME280;44177;43.356;27.672;2024-01-10T10:42:45;99427.53;;;12.20;27.96
58373;BME280;44177;43.356;27.672;2024-01-10T10:45:16;99389.13;;;13.19;27.42
58373;BME280;44177;43.356;27.672;2024-01-10T10:47:44;99416.38;;;12.43;28.09
58373;BME280;44177;43.356;27.672;2024-01-10T10:50:24;99398.47;;;12.07;28.49
58373;BME280;44177;43.356;27.672;2024-01-10T10:52:51;99380.09;;;10.81;29.30
58373;BME280;44177;43.356;27.672;2024-01-10T10:55:18;99340.44;;;11.18;29.14
58373;BME280;44177;43.356;27.672;2024-01-10T10:57:45;99405.50;;;11.08;30.02
58373;BME280;44177;43.356;27.672;2024-01-10T11:00:23;99380.03;;;11.86;28.79
58373;BME280;44177;43.356;27.672;2024-01-10T11:02:55;99388.66;;;10.48;29.24
58373;BME280;44177;43.356;27.672;2024-01-10T11:05:21;99349.41;;;9.09;30.86
58373;BME280;44177;43.356;27.672;2024-01-10T11:07:47;99387.50;;;9.45;30.92
58373;BME280;44177;43.356;27.672;2024-01-10T11:21:23;99329.84;;;6.54;35.54
58373;BME280;44177;43.356;27.672;2024-01-10T11:23:58;99370.34;;;6.21;35.47
58373;BME280;44177;43.356;27.672;2024-01-10T11:26:24;99392.25;;;6.00;37.05
58373;BME280;44177;43.356;27.672;2024-01-10T11:28:50;99370.19;;;6.37;36.55
58373;BME280;44177;43.356;27.672;2024-01-10T11:31:27;99274.94;;;5.51;37.90
58373;BME280;44177;43.356;27.672;2024-01-10T11:33:56;99362.59;;;5.85;36.14
58373;BME280;44177;43.356;27.672;2024-01-10T11:36:21;99373.25;;;5.47;36.66
58373;BME280;44177;43.356;27.672;2024-01-10T11:46:48;99376.50;;;4.59;39.57
58373;BME280;44177;43.356;27.672;2024-01-10T11:49:16;99377.81;;;4.72;40.65
58373;BME280;44177;43.356;27.672;2024-01-10T11:51:43;99365.22;;;4.41;40.15
58373;BME280;44177;43.356;27.672;2024-01-10T11:54:09;99370.41;;;4.27;40.46
58373;BME280;44177;43.356;27.672;2024-01-10T11:56:42;99362.72;;;3.90;39.78
58373;BME280;44177;43.356;27.672;2024-01-10T11:59:10;99374.59;;;3.89;42.20
58373;BME280;44177;43.356;27.672;2024-01-10T12:01:41;99352.19;;;3.78;40.41
58373;BME280;44177;43.356;27.672;2024-01-10T12:04:07;99357.91;;;3.35;42.84
58373;BME280;44177;43.356;27.672;2024-01-10T12:06:37;99374.63;;;3.47;41.99
58373;BME280;44177;43.356;27.672;2024-01-10T12:09:03;99357.06;;;3.09;42.09
58373;BME280;44177;43.356;27.672;2024-01-10T12:11:35;99374.31;;;3.75;43.46
58373;BME280;44177;43.356;27.672;2024-01-10T12:14:01;99371.13;;;3.21;41.49
58373;BME280;44177;43.356;27.672;2024-01-10T12:16:27;99353.31;;;3.20;42.33
58373;BME280;44177;43.356;27.672;2024-01-10T12:18:54;99374.91;;;3.30;43.76
58373;BME280;44177;43.356;27.672;2024-01-10T12:21:20;99375.69;;;3.21;44.26
58373;BME280;44177;43.356;27.672;2024-01-10T12:23:46;99374.31;;;3.03;44.67
58373;BME280;44177;43.356;27.672;2024-01-10T12:26:12;99367.59;;;3.05;44.96
58373;BME280;44177;43.356;27.672;2024-01-10T12:28:38;99370.84;;;3.23;44.91
58373;BME280;44177;43.356;27.672;2024-01-10T12:31:04;99371.38;;;3.09;44.63
58373;BME280;44177;43.356;27.672;2024-01-10T12:33:36;99339.00;;;3.14;44.07
58373;BME280;44177;43.356;27.672;2024-01-10T12:36:10;99373.81;;;3.47;45.67
58373;BME280;44177;43.356;27.672;2024-01-10T12:38:36;99374.09;;;3.40;45.34
58373;BME280;44177;43.356;27.672;2024-01-10T12:41:04;99334.69;;;2.98;45.91
58373;BME280;44177;43.356;27.672;2024-01-10T12:43:31;99373.53;;;3.07;45.72
58373;BME280;44177;43.356;27.672;2024-01-10T12:46:06;99369.69;;;2.72;46.45
58373;BME280;44177;43.356;27.672;2024-01-10T12:48:33;99367.53;;;2.74;47.11
58373;BME280;44177;43.356;27.672;2024-01-10T12:50:59;99358.28;;;2.49;47.60
58373;BME280;44177;43.356;27.672;2024-01-10T12:53:32;99373.75;;;2.75;47.80
58373;BME280;44177;43.356;27.672;2024-01-10T12:55:57;99364.56;;;2.71;47.01
58373;BME280;44177;43.356;27.672;2024-01-10T12:58:23;99378.00;;;2.60;48.20
58373;BME280;44177;43.356;27.672;2024-01-10T13:00:48;99378.59;;;2.78;47.88
58373;BME280;44177;43.356;27.672;2024-01-10T13:03:14;99359.28;;;2.28;47.09